sensor_id;sensor_type;location;lat;lon;timestamp;P1;durP1;ratioP1;P2;durP2;ratioP2
48403;SDS011;34202;52.536;6.042;2022-07-29T00:03:45;3.00;;;1.10;;
48403;SDS011;34202;52.536;6.042;2022-07-29T00:08:46;4.70;;;0.90;;
48403;SDS011;34202;52.536;6.042;2022-07-29T00:13:46;1.70;;;1.00;;
48403;SDS011;34202;52.536;6.042;2022-07-29T00:18:47;3.40;;;1.10;;
48403;SDS011;34202;52.536;6.042;2022-07-29T00:23:47;3.80;;;1.20;;
48403;SDS011;34202;52.536;6.042;2022-07-29T00:28:48;2.50;;;1.40;;
48403;SDS011;34202;52.536;6.042;2022-07-29T00:33:48;1.50;;;1.00;;
48403;SDS011;34202;52.536;6.042;2022-07-29T00:38:49;3.30;;;1.20;;
48403;SDS011;34202;52.536;6.042;2022-07-29T00:43:50;2.60;;;1.20;;
48403;SDS011;34202;52.536;6.042;2022-07-29T00:48:51;5.20;;;1.20;;
48403;SDS011;34202;52.536;6.042;2022-07-29T00:53:51;6.00;;;1.30;;
48403;SDS011;34202;52.536;6.042;2022-07-29T00:58:52;3.80;;;1.40;;
48403;SDS011;34202;52.536;6.042;2022-07-29T01:03:56;1.00;;;1.00;;
48403;SDS011;34202;52.536;6.042;2022-07-29T01:08:56;4.70;;;1.30;;
48403;SDS011;34202;52.536;6.042;2022-07-29T01:13:57;2.50;;;1.00;;
48403;SDS011;34202;52.536;6.042;2022-07-29T01:19:17;6.60;;;1.30;;
48403;SDS011;34202;52.536;6.042;2022-07-29T01:24:41;4.10;;;1.40;;
48403;SDS011;34202;52.536;6.042;2022-07-29T01:29:53;3.80;;;1.50;;
48403;SDS011;34202;52.536;6.042;2022-07-29T01:40:00;2.90;;;1.30;;
48403;SDS011;34202;52.536;6.042;2022-07-29T01:45:08;3.30;;;1.30;;
48403;SDS011;34202;52.536;6.042;2022-07-29T01:50:14;2.30;;;1.20;;
48403;SDS011;34202;52.536;6.042;2022-07-29T01:55:17;5.00;;;1.30;;
48403;SDS011;34202;52.536;6.042;2022-07-29T02:00:20;2.60;;;1.40;;
48403;SDS011;34202;52.536;6.042;2022-07-29T02:05:22;2.60;;;1.30;;
48403;SDS011;34202;52.536;6.042;2022-07-29T02:10:27;3.00;;;1.20;;
48403;SDS011;34202;52.536;6.042;2022-07-29T02:15:32;5.60;;;1.60;;
48403;SDS011;34202;52.536;6.042;2022-07-29T02:20:34;9.00;;;3.40;;
48403;SDS011;34202;52.536;6.042;2022-07-29T02:25:36;2.40;;;1.50;;
48403;SDS011;34202;52.536;6.042;2022-07-29T02:30:39;2.30;;;1.50;;
48403;SDS011;34202;52.536;6.042;2022-07-29T02:35:42;1.20;;;1.10;;
48403;SDS011;34202;52.536;6.042;2022-07-29T02:40:44;2.10;;;1.20;;
48403;SDS011;34202;52.536;6.042;2022-07-29T02:45:46;1.60;;;1.10;;
48403;SDS011;34202;52.536;6.042;2022-07-29T02:50:51;4.30;;;1.30;;
48403;SDS011;34202;52.536;6.042;2022-07-29T03:01:16;1.80;;;1.50;;
48403;SDS011;34202;52.536;6.042;2022-07-29T03:06:22;2.10;;;1.30;;
48403;SDS011;34202;52.536;6.042;2022-07-29T03:11:25;3.90;;;1.50;;
48403;SDS011;34202;52.536;6.042;2022-07-29T03:16:26;3.30;;;1.50;;
48403;SDS011;34202;52.536;6.042;2022-07-29T03:21:27;4.60;;;1.60;;
48403;SDS011;34202;52.536;6.042;2022-07-29T03:26:27;1.30;;;1.20;;
48403;SDS011;34202;52.536;6.042;2022-07-29T03:31:28;28.50;;;4.30;;
48403;SDS011;34202;52.536;6.042;2022-07-29T03:36:28;1.50;;;1.30;;
48403;SDS011;34202;52.536;6.042;2022-07-29T03:41:28;3.70;;;1.30;;
48403;SDS011;34202;52.536;6.042;2022-07-29T03:46:31;4.80;;;1.90;;
48403;SDS011;34202;52.536;6.042;2022-07-29T03:51:33;3.40;;;1.20;;
48403;SDS011;34202;52.536;6.042;2022-07-29T03:56:37;9.80;;;1.50;;
48403;SDS011;34202;52.536;6.042;2022-07-29T04:06:42;4.80;;;1.70;;
48403;SDS011;34202;52.536;6.042;2022-07-29T04:11:44;5.40;;;2.10;;
48403;SDS011;34202;52.536;6.042;2022-07-29T04:16:45;6.00;;;2.00;;
48403;SDS011;34202;52.536;6.042;2022-07-29T04:21:45;2.40;;;1.80;;
48403;SDS011;34202;52.536;6.042;2022-07-29T04:26:46;6.50;;;1.90;;
48403;SDS011;34202;52.536;6.042;2022-07-29T04:31:47;4.00;;;2.00;;
48403;SDS011;34202;52.536;6.042;2022-07-29T04:36:47;3.40;;;1.80;;
48403;SDS011;34202;52.536;6.042;2022-07-29T04:41:47;3.10;;;1.50;;
48403;SDS011;34202;52.536;6.042;2022-07-29T04:46:49;7.10;;;1.70;;
48403;SDS011;34202;52.536;6.042;2022-07-29T04:51:49;3.00;;;1.30;;
48403;SDS011;34202;52.536;6.042;2022-07-29T04:56:49;3.60;;;1.50;;
48403;SDS011;34202;52.536;6.042;2022-07-29T05:01:50;6.50;;;1.70;;
48403;SDS011;34202;52.536;6.042;2022-07-29T05:06:50;4.60;;;1.50;;
48403;SDS011;34202;52.536;6.042;2022-07-29T05:11:50;5.60;;;1.60;;
48403;SDS011;34202;52.536;6.042;2022-07-29T05:16:51;4.60;;;1.90;;
48403;SDS011;34202;52.536;6.042;2022-07-29T05:21:52;4.60;;;1.90;;
48403;SDS011;34202;52.536;6.042;2022-07-29T05:26:53;3.80;;;1.70;;
48403;SDS011;34202;52.536;6.042;2022-07-29T05:31:53;7.30;;;2.00;;
48403;SDS011;34202;52.536;6.042;2022-07-29T05:36:53;4.80;;;1.90;;
48403;SDS011;34202;52.536;6.042;2022-07-29T05:41:54;2.70;;;1.40;;
48403;SDS011;34202;52.536;6.042;2022-07-29T05:46:54;4.30;;;2.20;;
48403;SDS011;34202;52.536;6.042;2022-07-29T05:51:54;2.00;;;1.50;;
48403;SDS011;34202;52.536;6.042;2022-07-29T05:56:54;4.00;;;1.80;;
48403;SDS011;34202;52.536;6.042;2022-07-29T06:01:55;4.50;;;1.70;;
48403;SDS011;34202;52.536;6.042;2022-07-29T06:06:56;5.50;;;1.60;;
48403;SDS011;34202;52.536;6.042;2022-07-29T06:11:57;4.00;;;2.00;;
48403;SDS011;34202;52.536;6.042;2022-07-29T06:16:58;4.80;;;2.20;;
48403;SDS011;34202;52.536;6.042;2022-07-29T06:21:58;4.60;;;2.20;;
48403;SDS011;34202;52.536;6.042;2022-07-29T06:26:58;3.80;;;1.80;;
48403;SDS011;34202;52.536;6.042;2022-07-29T06:31:59;8.30;;;2.20;;
48403;SDS011;34202;52.536;6.042;2022-07-29T06:37:00;7.00;;;1.70;;
48403;SDS011;34202;52.536;6.042;2022-07-29T06:42:00;3.40;;;2.20;;
48403;SDS011;34202;52.536;6.042;2022-07-29T06:47:00;7.60;;;2.00;;
48403;SDS011;34202;52.536;6.042;2022-07-29T06:52:02;3.30;;;1.80;;
48403;SDS011;34202;52.536;6.042;2022-07-29T06:57:02;3.60;;;2.00;;
48403;SDS011;34202;52.536;6.042;2022-07-29T07:02:03;4.20;;;2.10;;
48403;SDS011;34202;52.536;6.042;2022-07-29T07:07:03;2.00;;;1.30;;
48403;SDS011;34202;52.536;6.042;2022-07-29T07:12:03;6.70;;;2.10;;
48403;SDS011;34202;52.536;6.042;2022-07-29T07:17:04;3.80;;;2.20;;
48403;SDS011;34202;52.536;6.042;2022-07-29T07:22:06;9.30;;;3.00;;
48403;SDS011;34202;52.536;6.042;2022-07-29T07:27:07;5.90;;;2.00;;
48403;SDS011;34202;52.536;6.042;2022-07-29T07:32:07;4.90;;;2.30;;
48403;SDS011;34202;52.536;6.042;2022-07-29T07:37:07;4.30;;;2.40;;
48403;SDS011;34202;52.536;6.042;2022-07-29T07:42:08;4.60;;;2.00;;
48403;SDS011;34202;52.536;6.042;2022-07-29T07:47:11;4.20;;;2.50;;
48403;SDS011;34202;52.536;6.042;2022-07-29T07:52:13;5.90;;;2.50;;
48403;SDS011;34202;52.536;6.042;2022-07-29T07:57:14;3.70;;;2.20;;
48403;SDS011;34202;52.536;6.042;2022-07-29T08:02:15;7.90;;;2.60;;
48403;SDS011;34202;52.536;6.042;2022-07-29T08:07:15;3.50;;;2.50;;
48403;SDS011;34202;52.536;6.042;2022-07-29T08:12:15;5.50;;;2.50;;
48403;SDS011;34202;52.536;6.042;2022-07-29T08:17:16;4.00;;;2.40;;
48403;SDS011;34202;52.536;6.042;2022-07-29T08:22:16;6.80;;;2.50;;
48403;SDS011;34202;52.536;6.042;2022-07-29T08:27:16;3.80;;;2.00;;
48403;SDS011;34202;52.536;6.042;2022-07-29T08:32:17;4.70;;;2.40;;
48403;SDS011;34202;52.536;6.042;2022-07-29T08:37:18;9.90;;;3.20;;
48403;SDS011;34202;52.536;6.042;2022-07-29T08:42:18;7.00;;;2.70;;
48403;SDS011;34202;52.536;6.042;2022-07-29T08:47:20;5.00;;;2.40;;
48403;SDS011;34202;52.536;6.042;2022-07-29T08:52:20;2.50;;;2.20;;
48403;SDS011;34202;52.536;6.042;2022-07-29T08:57:24;2.90;;;2.50;;
48403;SDS011;34202;52.536;6.042;2022-07-29T09:02:26;7.90;;;2.80;;
48403;SDS011;34202;52.536;6.042;2022-07-29T09:07:29;10.20;;;2.50;;
48403;SDS011;34202;52.536;6.042;2022-07-29T09:12:29;3.60;;;2.40;;
48403;SDS011;34202;52.536;6.042;2022-07-29T09:17:41;3.30;;;2.30;;
48403;SDS011;34202;52.536;6.042;2022-07-29T09:22:43;7.90;;;2.30;;
48403;SDS011;34202;52.536;6.042;2022-07-29T09:27:45;7.80;;;3.10;;
48403;SDS011;34202;52.536;6.042;2022-07-29T09:32:54;6.00;;;2.90;;
48403;SDS011;34202;52.536;6.042;2022-07-29T09:38:11;5.40;;;2.90;;
48403;SDS011;34202;52.536;6.042;2022-07-29T09:43:13;7.10;;;2.60;;
48403;SDS011;34202;52.536;6.042;2022-07-29T09:48:17;4.30;;;2.80;;
48403;SDS011;34202;52.536;6.042;2022-07-29T09:53:32;6.30;;;2.80;;
48403;SDS011;34202;52.536;6.042;2022-07-29T09:58:34;6.40;;;3.60;;
48403;SDS011;34202;52.536;6.042;2022-07-29T10:03:50;5.10;;;2.30;;
48403;SDS011;34202;52.536;6.042;2022-07-29T10:08:52;5.70;;;2.70;;
48403;SDS011;34202;52.536;6.042;2022-07-29T10:13:53;9.80;;;3.10;;
48403;SDS011;34202;52.536;6.042;2022-07-29T10:18:53;2.80;;;1.80;;
48403;SDS011;34202;52.536;6.042;2022-07-29T10:23:54;6.50;;;3.40;;
48403;SDS011;34202;52.536;6.042;2022-07-29T10:28:56;5.60;;;2.80;;
48403;SDS011;34202;52.536;6.042;2022-07-29T10:44:29;7.90;;;3.00;;
48403;SDS011;34202;52.536;6.042;2022-07-29T10:49:30;6.20;;;3.20;;
48403;SDS011;34202;52.536;6.042;2022-07-29T10:59:38;7.40;;;3.30;;
48403;SDS011;34202;52.536;6.042;2022-07-29T11:15:13;7.50;;;2.20;;
48403;SDS011;34202;52.536;6.042;2022-07-29T11:20:31;5.80;;;3.10;;
48403;SDS011;34202;52.536;6.042;2022-07-29T11:25:42;9.40;;;2.60;;
48403;SDS011;34202;52.536;6.042;2022-07-29T11:30:52;8.70;;;3.50;;
48403;SDS011;34202;52.536;6.042;2022-07-29T11:36:10;9.00;;;2.90;;
48403;SDS011;34202;52.536;6.042;2022-07-29T11:41:25;4.90;;;2.60;;
48403;SDS011;34202;52.536;6.042;2022-07-29T11:51:51;6.40;;;3.40;;
48403;SDS011;34202;52.536;6.042;2022-07-29T11:56:52;5.40;;;2.90;;
48403;SDS011;34202;52.536;6.042;2022-07-29T12:01:53;4.70;;;2.60;;
48403;SDS011;34202;52.536;6.042;2022-07-29T12:06:54;8.70;;;3.00;;
48403;SDS011;34202;52.536;6.042;2022-07-29T12:11:56;3.90;;;2.70;;
48403;SDS011;34202;52.536;6.042;2022-07-29T12:16:59;4.30;;;2.40;;
48403;SDS011;34202;52.536;6.042;2022-07-29T12:22:00;9.20;;;3.40;;
48403;SDS011;34202;52.536;6.042;2022-07-29T12:27:00;5.60;;;2.90;;
48403;SDS011;34202;52.536;6.042;2022-07-29T12:32:02;5.00;;;2.10;;
48403;SDS011;34202;52.536;6.042;2022-07-29T12:37:03;5.20;;;1.70;;
48403;SDS011;34202;52.536;6.042;2022-07-29T12:42:11;6.30;;;2.20;;
48403;SDS011;34202;52.536;6.042;2022-07-29T12:47:12;5.70;;;2.00;;
48403;SDS011;34202;52.536;6.042;2022-07-29T12:52:32;5.70;;;2.00;;
48403;SDS011;34202;52.536;6.042;2022-07-29T12:57:44;3.30;;;2.20;;
48403;SDS011;34202;52.536;6.042;2022-07-29T13:02:53;3.90;;;2.10;;
48403;SDS011;34202;52.536;6.042;2022-07-29T13:07:55;3.30;;;2.00;;
48403;SDS011;34202;52.536;6.042;2022-07-29T13:13:14;4.70;;;1.90;;
48403;SDS011;34202;52.536;6.042;2022-07-29T13:18:31;4.30;;;1.50;;
48403;SDS011;34202;52.536;6.042;2022-07-29T13:23:33;2.40;;;1.30;;
48403;SDS011;34202;52.536;6.042;2022-07-29T13:28:33;8.70;;;2.10;;
48403;SDS011;34202;52.536;6.042;2022-07-29T13:33:34;4.70;;;2.20;;
48403;SDS011;34202;52.536;6.042;2022-07-29T13:38:34;7.60;;;2.10;;
48403;SDS011;34202;52.536;6.042;2022-07-29T13:43:35;5.10;;;1.40;;
48403;SDS011;34202;52.536;6.042;2022-07-29T13:48:35;4.00;;;2.00;;
48403;SDS011;34202;52.536;6.042;2022-07-29T13:53:35;8.80;;;2.40;;
48403;SDS011;34202;52.536;6.042;2022-07-29T13:58:36;9.70;;;2.70;;
48403;SDS011;34202;52.536;6.042;2022-07-29T14:03:36;3.80;;;2.00;;
48403;SDS011;34202;52.536;6.042;2022-07-29T14:08:40;6.50;;;2.60;;
48403;SDS011;34202;52.536;6.042;2022-07-29T14:13:41;7.10;;;2.10;;
48403;SDS011;34202;52.536;6.042;2022-07-29T14:18:41;4.30;;;1.60;;
48403;SDS011;34202;52.536;6.042;2022-07-29T14:23:42;4.80;;;2.50;;
48403;SDS011;34202;52.536;6.042;2022-07-29T14:28:42;7.20;;;2.00;;
48403;SDS011;34202;52.536;6.042;2022-07-29T14:33:43;4.50;;;1.40;;
48403;SDS011;34202;52.536;6.042;2022-07-29T14:38:44;4.50;;;1.90;;
48403;SDS011;34202;52.536;6.042;2022-07-29T14:43:44;4.70;;;1.90;;
48403;SDS011;34202;52.536;6.042;2022-07-29T14:48:44;6.90;;;2.40;;
48403;SDS011;34202;52.536;6.042;2022-07-29T14:53:45;7.30;;;1.70;;
48403;SDS011;34202;52.536;6.042;2022-07-29T14:58:45;8.40;;;2.30;;
48403;SDS011;34202;52.536;6.042;2022-07-29T15:07:39;4.10;;;2.20;;
48403;SDS011;34202;52.536;6.042;2022-07-29T15:12:39;5.10;;;1.80;;
48403;SDS011;34202;52.536;6.042;2022-07-29T15:17:40;2.90;;;1.80;;
48403;SDS011;34202;52.536;6.042;2022-07-29T15:22:42;6.10;;;2.20;;
48403;SDS011;34202;52.536;6.042;2022-07-29T15:27:43;6.50;;;1.80;;
48403;SDS011;34202;52.536;6.042;2022-07-29T15:32:43;10.30;;;2.10;;
48403;SDS011;34202;52.536;6.042;2022-07-29T15:37:44;4.80;;;2.40;;
48403;SDS011;34202;52.536;6.042;2022-07-29T15:42:45;5.80;;;2.10;;
48403;SDS011;34202;52.536;6.042;2022-07-29T15:47:45;7.40;;;1.90;;
48403;SDS011;34202;52.536;6.042;2022-07-29T15:52:46;7.90;;;1.80;;
48403;SDS011;34202;52.536;6.042;2022-07-29T15:57:46;6.10;;;2.60;;
48403;SDS011;34202;52.536;6.042;2022-07-29T16:02:46;7.50;;;2.10;;
48403;SDS011;34202;52.536;6.042;2022-07-29T16:07:47;8.50;;;2.10;;
48403;SDS011;34202;52.536;6.042;2022-07-29T16:12:47;6.40;;;1.80;;
48403;SDS011;34202;52.536;6.042;2022-07-29T16:17:47;4.30;;;1.70;;
48403;SDS011;34202;52.536;6.042;2022-07-29T16:22:49;4.00;;;2.20;;
48403;SDS011;34202;52.536;6.042;2022-07-29T16:27:49;5.70;;;2.20;;
48403;SDS011;34202;52.536;6.042;2022-07-29T16:32:50;4.70;;;2.20;;
48403;SDS011;34202;52.536;6.042;2022-07-29T16:37:50;2.70;;;1.90;;
48403;SDS011;34202;52.536;6.042;2022-07-29T16:42:50;7.70;;;2.30;;
48403;SDS011;34202;52.536;6.042;2022-07-29T16:47:52;7.20;;;1.50;;
48403;SDS011;34202;52.536;6.042;2022-07-29T16:52:53;4.90;;;2.30;;
48403;SDS011;34202;52.536;6.042;2022-07-29T16:57:54;11.60;;;2.30;;
48403;SDS011;34202;52.536;6.042;2022-07-29T17:02:54;8.80;;;2.70;;
48403;SDS011;34202;52.536;6.042;2022-07-29T17:07:55;8.00;;;2.00;;
48403;SDS011;34202;52.536;6.042;2022-07-29T17:12:57;7.90;;;2.50;;
48403;SDS011;34202;52.536;6.042;2022-07-29T17:17:57;4.10;;;1.90;;
48403;SDS011;34202;52.536;6.042;2022-07-29T17:22:59;7.00;;;1.90;;
48403;SDS011;34202;52.536;6.042;2022-07-29T17:28:00;6.30;;;1.90;;
48403;SDS011;34202;52.536;6.042;2022-07-29T17:33:00;7.90;;;2.80;;
48403;SDS011;34202;52.536;6.042;2022-07-29T17:38:00;9.40;;;3.80;;
48403;SDS011;34202;52.536;6.042;2022-07-29T17:43:01;10.70;;;5.40;;
48403;SDS011;34202;52.536;6.042;2022-07-29T17:48:03;8.50;;;4.30;;
48403;SDS011;34202;52.536;6.042;2022-07-29T17:53:04;11.00;;;4.10;;
48403;SDS011;34202;52.536;6.042;2022-07-29T17:58:04;7.00;;;4.40;;
48403;SDS011;34202;52.536;6.042;2022-07-29T18:03:07;8.60;;;4.60;;
48403;SDS011;34202;52.536;6.042;2022-07-29T18:08:08;8.50;;;4.70;;
48403;SDS011;34202;52.536;6.042;2022-07-29T18:13:09;9.70;;;3.90;;
48403;SDS011;34202;52.536;6.042;2022-07-29T18:18:12;5.60;;;3.40;;
48403;SDS011;34202;52.536;6.042;2022-07-29T18:23:13;9.50;;;3.60;;
48403;SDS011;34202;52.536;6.042;2022-07-29T18:28:15;8.20;;;4.30;;
48403;SDS011;34202;52.536;6.042;2022-07-29T18:33:16;4.20;;;3.60;;
48403;SDS011;34202;52.536;6.042;2022-07-29T18:38:18;6.30;;;4.20;;
48403;SDS011;34202;52.536;6.042;2022-07-29T18:43:20;6.30;;;3.40;;
48403;SDS011;34202;52.536;6.042;2022-07-29T18:48:21;7.40;;;3.60;;
48403;SDS011;34202;52.536;6.042;2022-07-29T18:53:21;11.30;;;4.20;;
48403;SDS011;34202;52.536;6.042;2022-07-29T18:58:21;13.40;;;3.80;;
48403;SDS011;34202;52.536;6.042;2022-07-29T19:03:22;8.20;;;4.50;;
48403;SDS011;34202;52.536;6.042;2022-07-29T19:08:22;10.30;;;4.00;;
48403;SDS011;34202;52.536;6.042;2022-07-29T19:13:23;12.70;;;4.10;;
48403;SDS011;34202;52.536;6.042;2022-07-29T19:18:24;8.60;;;3.80;;
48403;SDS011;34202;52.536;6.042;2022-07-29T19:23:25;9.20;;;5.00;;
48403;SDS011;34202;52.536;6.042;2022-07-29T19:28:25;22.90;;;5.90;;
48403;SDS011;34202;52.536;6.042;2022-07-29T19:33:25;6.80;;;4.00;;
48403;SDS011;34202;52.536;6.042;2022-07-29T19:38:25;17.20;;;4.60;;
48403;SDS011;34202;52.536;6.042;2022-07-29T19:43:26;7.90;;;4.80;;
48403;SDS011;34202;52.536;6.042;2022-07-29T19:48:26;8.50;;;4.20;;
48403;SDS011;34202;52.536;6.042;2022-07-29T19:53:27;8.90;;;4.40;;
48403;SDS011;34202;52.536;6.042;2022-07-29T19:58:27;9.40;;;4.70;;
48403;SDS011;34202;52.536;6.042;2022-07-29T20:03:28;9.50;;;4.60;;
48403;SDS011;34202;52.536;6.042;2022-07-29T20:08:28;11.50;;;4.90;;
48403;SDS011;34202;52.536;6.042;2022-07-29T20:13:29;9.60;;;4.40;;
48403;SDS011;34202;52.536;6.042;2022-07-29T20:18:32;9.30;;;4.60;;
48403;SDS011;34202;52.536;6.042;2022-07-29T20:23:32;12.90;;;4.80;;
48403;SDS011;34202;52.536;6.042;2022-07-29T20:28:33;12.20;;;4.70;;
48403;SDS011;34202;52.536;6.042;2022-07-29T20:33:33;14.00;;;5.00;;
48403;SDS011;34202;52.536;6.042;2022-07-29T20:38:33;11.40;;;5.20;;
48403;SDS011;34202;52.536;6.042;2022-07-29T20:43:34;16.70;;;5.60;;
48403;SDS011;34202;52.536;6.042;2022-07-29T20:48:34;12.80;;;5.30;;
48403;SDS011;34202;52.536;6.042;2022-07-29T20:53:36;10.10;;;5.10;;
48403;SDS011;34202;52.536;6.042;2022-07-29T20:58:37;8.70;;;4.80;;
48403;SDS011;34202;52.536;6.042;2022-07-29T21:03:39;10.10;;;4.60;;
48403;SDS011;34202;52.536;6.042;2022-07-29T21:08:40;8.30;;;4.50;;
48403;SDS011;34202;52.536;6.042;2022-07-29T21:13:40;11.20;;;4.80;;
48403;SDS011;34202;52.536;6.042;2022-07-29T21:18:44;9.60;;;4.40;;
48403;SDS011;34202;52.536;6.042;2022-07-29T21:23:45;9.50;;;4.80;;
48403;SDS011;34202;52.536;6.042;2022-07-29T21:28:46;7.80;;;5.10;;
48403;SDS011;34202;52.536;6.042;2022-07-29T21:33:46;10.10;;;4.80;;
48403;SDS011;34202;52.536;6.042;2022-07-29T21:38:47;7.90;;;4.10;;
48403;SDS011;34202;52.536;6.042;2022-07-29T21:43:47;10.30;;;5.30;;
48403;SDS011;34202;52.536;6.042;2022-07-29T21:48:47;8.40;;;4.80;;
48403;SDS011;34202;52.536;6.042;2022-07-29T21:53:48;15.00;;;7.40;;
48403;SDS011;34202;52.536;6.042;2022-07-29T21:58:49;11.30;;;5.80;;
48403;SDS011;34202;52.536;6.042;2022-07-29T22:03:49;7.90;;;6.20;;
48403;SDS011;34202;52.536;6.042;2022-07-29T22:08:50;10.00;;;7.30;;
48403;SDS011;34202;52.536;6.042;2022-07-29T22:13:50;14.80;;;6.10;;
48403;SDS011;34202;52.536;6.042;2022-07-29T22:18:51;9.00;;;5.90;;
48403;SDS011;34202;52.536;6.042;2022-07-29T22:23:51;10.40;;;5.30;;
48403;SDS011;34202;52.536;6.042;2022-07-29T22:28:51;9.80;;;6.00;;
48403;SDS011;34202;52.536;6.042;2022-07-29T22:33:52;7.60;;;6.40;;
48403;SDS011;34202;52.536;6.042;2022-07-29T22:38:52;9.90;;;7.40;;
48403;SDS011;34202;52.536;6.042;2022-07-29T22:43:52;19.70;;;8.90;;
48403;SDS011;34202;52.536;6.042;2022-07-29T22:48:53;15.80;;;10.00;;
48403;SDS011;34202;52.536;6.042;2022-07-29T22:53:53;17.80;;;9.20;;
48403;SDS011;34202;52.536;6.042;2022-07-29T22:58:53;15.90;;;9.00;;
48403;SDS011;34202;52.536;6.042;2022-07-29T23:03:54;17.00;;;9.20;;
48403;SDS011;34202;52.536;6.042;2022-07-29T23:08:54;14.60;;;8.60;;
48403;SDS011;34202;52.536;6.042;2022-07-29T23:13:55;14.80;;;8.90;;
48403;SDS011;34202;52.536;6.042;2022-07-29T23:18:55;15.60;;;8.70;;
48403;SDS011;34202;52.536;6.042;2022-07-29T23:23:55;15.00;;;8.70;;
48403;SDS011;34202;52.536;6.042;2022-07-29T23:28:56;17.90;;;9.60;;
48403;SDS011;34202;52.536;6.042;2022-07-29T23:33:56;11.90;;;8.40;;
48403;SDS011;34202;52.536;6.042;2022-07-29T23:38:56;15.60;;;9.00;;
48403;SDS011;34202;52.536;6.042;2022-07-29T23:43:56;17.30;;;9.20;;
48403;SDS011;34202;52.536;6.042;2022-07-29T23:48:57;12.50;;;8.70;;
48403;SDS011;34202;52.536;6.042;2022-07-29T23:53:57;12.00;;;8.90;;
48403;SDS011;34202;52.536;6.042;2022-07-29T23:58:57;14.40;;;9.00;;
